Time;durP1;ratioP1;P1;durP2;ratioP2;P2;SDS_P1;SDS_P2;PMS_P1;PMS_P2;Temp;Humidity;BMP_temperature;BMP_pressure;BME280_temperature;BME280_humidity;BME280_pressure;Samples;Min_cycle;Max_cycle;Signal;HPM_P1;HPM_P2
2022/11/04 00:01:30;;;;;;;1.95;0.50;;;10.50;99.90;;;;;;5140338;27;20114;-50
2022/11/04 00:03:56;;;;;;;1.38;0.50;;;10.20;99.90;;;;;;5138712;27;20095;-49
2022/11/04 00:06:22;;;;;;;2.10;0.52;;;10.40;99.90;;;;;;5140991;27;20541;-50
2022/11/04 00:08:53;;;;;;;2.60;0.40;;;10.50;99.90;;;;;;5147154;27;20023;-49
2022/11/04 00:14:05;;;;;;;5.82;0.60;;;10.40;99.90;;;;;;5138715;27;20042;-51
2022/11/04 00:19:15;;;;;;;3.42;0.57;;;10.60;99.90;;;;;;5140129;27;20058;-49
2022/11/04 00:29:58;;;;;;;2.25;0.73;;;10.70;99.90;;;;;;5141622;27;20051;-48
2022/11/04 00:35:10;;;;;;;2.88;0.70;;;10.70;99.90;;;;;;5144543;27;20112;-47
2022/11/04 00:37:40;;;;;;;5.20;0.90;;;10.60;99.90;;;;;;5139324;27;20043;-48
2022/11/04 00:40:07;;;;;;;4.07;1.00;;;10.70;99.90;;;;;;5144806;27;20079;-49
2022/11/04 00:42:34;;;;;;;2.67;0.70;;;10.70;99.90;;;;;;5125367;27;20543;-50
2022/11/04 00:44:59;;;;;;;2.95;0.60;;;10.70;99.90;;;;;;5139665;27;20035;-48
2022/11/04 00:47:25;;;;;;;3.40;0.70;;;10.30;99.90;;;;;;5144837;27;20840;-49
2022/11/04 00:49:51;;;;;;;2.75;0.70;;;10.60;99.90;;;;;;5140619;27;20038;-49
2022/11/04 00:52:17;;;;;;;3.40;0.82;;;10.60;99.90;;;;;;5141896;27;20064;-49
2022/11/04 00:54:42;;;;;;;3.25;0.90;;;10.70;99.90;;;;;;5142227;27;20043;-48
2022/11/04 00:57:09;;;;;;;1.80;0.70;;;10.60;99.90;;;;;;5143636;27;20023;-48
2022/11/04 00:59:35;;;;;;;4.45;0.90;;;10.50;99.90;;;;;;5136680;27;20043;-49
2022/11/04 01:02:01;;;;;;;4.22;0.60;;;10.50;99.90;;;;;;5124547;27;20043;-50
2022/11/04 01:04:27;;;;;;;2.85;0.80;;;10.30;99.90;;;;;;5139111;27;20039;-48
2022/11/04 01:06:53;;;;;;;3.20;0.77;;;10.40;99.90;;;;;;5146766;27;20042;-49
2022/11/04 01:09:19;;;;;;;7.25;0.80;;;10.30;99.90;;;;;;5136471;27;20482;-48
2022/11/04 01:11:44;;;;;;;3.30;1.00;;;10.70;99.90;;;;;;5137953;27;20478;-49
2022/11/04 01:14:10;;;;;;;4.90;0.65;;;10.80;99.90;;;;;;5140954;27;20031;-48
2022/11/04 01:16:36;;;;;;;3.45;0.77;;;10.60;99.90;;;;;;5149768;27;20034;-49
2022/11/04 01:19:02;;;;;;;3.90;0.80;;;10.60;99.90;;;;;;5129638;27;20062;-48
2022/11/04 01:21:28;;;;;;;3.97;0.90;;;10.40;99.90;;;;;;5140600;27;20099;-48
2022/11/04 01:23:54;;;;;;;4.75;0.80;;;10.40;99.90;;;;;;5145624;27;20035;-50
2022/11/04 01:26:22;;;;;;;6.10;1.20;;;10.70;99.90;;;;;;5145674;27;20366;-49
2022/11/04 01:28:48;;;;;;;2.60;0.98;;;10.40;99.90;;;;;;5144208;27;20073;-48
2022/11/04 01:31:22;;;;;;;7.15;1.48;;;10.60;99.90;;;;;;5118649;27;20075;-48
2022/11/04 01:33:49;;;;;;;6.22;2.60;;;10.40;99.90;;;;;;5141493;27;20100;-47
2022/11/04 01:36:15;;;;;;;5.32;2.33;;;10.70;99.90;;;;;;5144460;27;20634;-47
2022/11/04 01:38:41;;;;;;;8.88;3.17;;;10.70;99.90;;;;;;5136475;27;20106;-49
2022/11/04 01:41:10;;;;;;;6.35;2.83;;;10.60;99.90;;;;;;5139522;27;20551;-48
2022/11/04 01:43:57;;;;;;;9.05;3.22;;;10.60;99.90;;;;;;5133634;27;20133;-49
2022/11/04 01:46:43;;;;;;;7.60;3.15;;;10.60;99.90;;;;;;5140117;27;20035;-51
2022/11/04 01:49:38;;;;;;;8.50;3.42;;;10.30;99.90;;;;;;5147221;27;20178;-50
2022/11/04 01:52:11;;;;;;;9.68;3.67;;;10.40;99.90;;;;;;5133911;27;20043;-48
2022/11/04 01:54:39;;;;;;;7.45;3.42;;;10.50;99.90;;;;;;5136401;27;20077;-48
2022/11/04 01:57:08;;;;;;;10.35;3.90;;;10.40;99.90;;;;;;5134298;27;20415;-49
2022/11/04 01:59:37;;;;;;;9.45;4.38;;;10.40;99.90;;;;;;5117270;27;20039;-50
2022/11/04 02:02:03;;;;;;;10.13;4.70;;;10.50;99.90;;;;;;5145703;27;20043;-50
2022/11/04 02:04:30;;;;;;;9.38;4.00;;;10.80;99.90;;;;;;5146691;27;20034;-51
2022/11/04 02:06:59;;;;;;;7.72;3.80;;;10.40;99.90;;;;;;5140360;27;20072;-50
2022/11/04 02:09:27;;;;;;;10.70;4.13;;;10.80;99.90;;;;;;5141951;27;20045;-48
2022/11/04 02:14:39;;;;;;;5.13;1.77;;;10.50;99.90;;;;;;5141691;27;20181;-50
2022/11/04 02:17:17;;;;;;;3.55;1.08;;;10.60;99.90;;;;;;5145850;27;20043;-50
2022/11/04 02:20:05;;;;;;;3.30;1.13;;;10.60;99.90;;;;;;5139130;27;20519;-50
2022/11/04 02:22:51;;;;;;;5.20;1.17;;;10.30;99.90;;;;;;5141004;27;20035;-48
2022/11/04 02:25:39;;;;;;;3.28;1.10;;;10.30;99.90;;;;;;5135482;27;20082;-50
2022/11/04 02:28:35;;;;;;;7.75;1.85;;;10.30;99.90;;;;;;5137530;27;20064;-50
2022/11/04 02:31:18;;;;;;;3.58;0.77;;;10.40;99.90;;;;;;5121114;27;20043;-48
2022/11/04 02:34:17;;;;;;;3.75;0.93;;;10.40;99.90;;;;;;5140930;27;20043;-50
2022/11/04 02:36:50;;;;;;;2.15;0.70;;;10.40;99.90;;;;;;5138974;27;20504;-49
2022/11/04 02:39:32;;;;;;;5.35;1.05;;;10.00;99.90;;;;;;5147555;27;20079;-49
2022/11/04 02:42:33;;;;;;;3.47;0.70;;;10.10;99.90;;;;;;5133083;27;20109;-48
2022/11/04 02:45:16;;;;;;;5.72;1.23;;;10.00;99.90;;;;;;5090248;27;20180;-48
2022/11/04 02:47:50;;;;;;;3.53;1.10;;;10.00;99.90;;;;;;5135968;27;20039;-49
2022/11/04 02:50:26;;;;;;;2.72;0.93;;;10.20;99.90;;;;;;5135331;27;20051;-48
2022/11/04 02:53:09;;;;;;;3.90;0.80;;;10.30;99.90;;;;;;5138608;27;20031;-48
2022/11/04 02:55:39;;;;;;;2.53;0.70;;;9.90;99.90;;;;;;5136298;27;20035;-50
2022/11/04 02:58:12;;;;;;;3.13;0.70;;;10.40;99.90;;;;;;5137549;27;20034;-49
2022/11/04 03:00:40;;;;;;;5.20;0.95;;;10.20;99.90;;;;;;5134965;27;20042;-50
2022/11/04 03:03:14;;;;;;;3.60;0.93;;;9.80;99.90;;;;;;5135308;27;20031;-49
2022/11/04 03:05:43;;;;;;;4.73;1.10;;;10.20;99.90;;;;;;5142387;27;20058;-49
2022/11/04 03:08:15;;;;;;;3.35;0.90;;;9.70;99.90;;;;;;5131625;27;20762;-52
2022/11/04 03:10:45;;;;;;;4.30;0.90;;;10.10;99.90;;;;;;5134923;27;20454;-50
2022/11/04 03:13:20;;;;;;;3.13;0.88;;;10.10;99.90;;;;;;5135192;27;20026;-49
2022/11/04 03:16:00;;;;;;;2.88;0.60;;;9.60;99.90;;;;;;5131969;27;20518;-49
2022/11/04 03:18:48;;;;;;;5.45;1.00;;;9.90;99.90;;;;;;5132396;27;20031;-52
2022/11/04 03:21:15;;;;;;;2.65;0.77;;;9.70;99.90;;;;;;5132667;27;20042;-52
2022/11/04 03:23:42;;;;;;;14.02;1.33;;;10.00;99.90;;;;;;5152019;27;20892;-53
2022/11/04 03:26:21;;;;;;;6.15;1.00;;;10.00;99.90;;;;;;5136154;27;20035;-52
2022/11/04 03:29:08;;;;;;;3.13;0.82;;;10.10;99.90;;;;;;5136212;27;20046;-52
2022/11/04 03:31:48;;;;;;;3.05;0.90;;;9.90;99.90;;;;;;5130965;27;20043;-50
2022/11/04 03:34:13;;;;;;;2.40;0.88;;;10.10;99.90;;;;;;5142468;27;20494;-49
2022/11/04 03:36:39;;;;;;;2.35;0.95;;;9.60;99.90;;;;;;5139583;27;20058;-50
2022/11/04 03:39:05;;;;;;;3.10;0.82;;;10.10;99.90;;;;;;5141970;27;20034;-51
2022/11/04 03:41:39;;;;;;;4.15;1.08;;;9.60;99.90;;;;;;5136520;27;20482;-52
2022/11/04 03:44:05;;;;;;;1.58;0.55;;;10.10;99.90;;;;;;5118367;27;20061;-50
2022/11/04 03:46:30;;;;;;;2.47;0.70;;;9.70;99.90;;;;;;5121006;27;20043;-48
2022/11/04 03:48:58;;;;;;;6.18;0.70;;;9.50;99.90;;;;;;5136640;27;20035;-50
2022/11/04 03:51:23;;;;;;;3.25;0.73;;;9.60;99.90;;;;;;5154689;27;20115;-52
2022/11/04 03:53:49;;;;;;;2.75;0.70;;;9.60;99.90;;;;;;5145022;27;20088;-50
2022/11/04 03:57:03;;;;;;;2.55;0.63;;;9.70;99.90;;;;;;5150896;27;20175;-48
2022/11/04 03:59:28;;;;;;;2.88;0.90;;;9.30;99.90;;;;;;5145566;27;20085;-49
2022/11/04 04:02:04;;;;;;;3.05;0.95;;;9.80;99.90;;;;;;5149106;27;20768;-49
2022/11/04 04:04:34;;;;;;;5.32;0.80;;;9.20;99.90;;;;;;5143295;27;20516;-51
2022/11/04 04:07:05;;;;;;;4.15;0.90;;;9.20;99.90;;;;;;5138386;27;20384;-51
2022/11/04 04:13:15;;;;;;;3.97;0.68;;;9.40;99.90;;;;;;5102147;28;20050;-49
2022/11/04 04:15:56;;;;;;;1.50;0.50;;;9.60;99.90;;;;;;5093351;28;20040;-51
2022/11/04 04:18:29;;;;;;;2.22;0.60;;;9.10;99.90;;;;;;5131185;27;20561;-50
2022/11/04 04:20:56;;;;;;;5.53;0.70;;;9.30;99.90;;;;;;5140035;27;20117;-51
2022/11/04 04:29:01;;;;;;;3.22;0.85;;;9.30;99.90;;;;;;5138745;27;20085;-48
2022/11/04 04:32:01;;;;;;;3.45;0.90;;;9.40;99.90;;;;;;5142570;27;20039;-49
2022/11/04 04:34:27;;;;;;;4.97;1.00;;;9.20;99.90;;;;;;5145932;27;20047;-49
2022/11/04 04:37:13;;;;;;;3.65;1.20;;;9.50;99.90;;;;;;5149526;27;20054;-48
2022/11/04 04:45:35;;;;;;;2.83;1.00;;;9.30;99.90;;;;;;5137263;27;20061;-48
2022/11/04 04:48:01;;;;;;;3.97;1.05;;;9.70;99.90;;;;;;5143293;27;20042;-52
2022/11/04 04:50:34;;;;;;;4.80;0.80;;;9.50;99.90;;;;;;5139776;27;20099;-48
2022/11/04 04:53:00;;;;;;;7.18;1.40;;;9.70;99.90;;;;;;5164585;27;20130;-48
2022/11/04 04:55:26;;;;;;;6.25;1.30;;;9.30;99.90;;;;;;5143202;27;20081;-51
2022/11/04 04:57:51;;;;;;;6.95;1.30;;;9.40;99.90;;;;;;5139746;27;20073;-49
2022/11/04 05:00:20;;;;;;;6.50;1.20;;;9.60;99.90;;;;;;5109194;27;20043;-51
2022/11/04 05:02:47;;;;;;;5.65;1.20;;;9.50;99.90;;;;;;5130266;27;20038;-49
2022/11/04 05:05:13;;;;;;;6.22;1.20;;;9.50;99.90;;;;;;5136444;27;20039;-50
2022/11/04 05:07:39;;;;;;;3.22;1.13;;;9.60;99.90;;;;;;5117883;27;20035;-49
2022/11/04 05:10:06;;;;;;;4.68;1.35;;;9.20;99.90;;;;;;5138513;27;20506;-50
2022/11/04 05:15:18;;;;;;;3.47;1.20;;;9.30;99.90;;;;;;5141296;27;20067;-49
2022/11/04 05:17:44;;;;;;;7.25;1.50;;;9.40;99.90;;;;;;5148830;27;20031;-51
2022/11/04 05:20:10;;;;;;;6.60;1.20;;;9.50;99.90;;;;;;5137362;27;20043;-49
2022/11/04 05:22:35;;;;;;;4.60;0.80;;;9.70;99.90;;;;;;5146727;27;20039;-49
2022/11/04 05:25:01;;;;;;;5.20;1.27;;;9.20;99.90;;;;;;5140994;27;20091;-49
2022/11/04 05:27:27;;;;;;;4.65;0.93;;;9.40;99.90;;;;;;5115810;27;20031;-49
2022/11/04 05:29:52;;;;;;;4.43;1.00;;;9.40;99.90;;;;;;5149260;27;20042;-51
2022/11/04 05:32:18;;;;;;;3.45;0.70;;;9.30;99.90;;;;;;5135856;27;20118;-51
2022/11/04 05:34:43;;;;;;;3.85;0.73;;;9.50;99.90;;;;;;5138176;27;20077;-50
2022/11/04 05:37:09;;;;;;;1.63;0.45;;;9.20;99.90;;;;;;5133372;27;20079;-50
2022/11/04 05:39:35;;;;;;;0.98;0.20;;;9.00;99.90;;;;;;5148817;27;20046;-51
2022/11/04 05:42:00;;;;;;;1.42;0.40;;;9.20;99.90;;;;;;5133437;27;20066;-49
2022/11/04 05:44:26;;;;;;;2.05;0.40;;;8.90;99.90;;;;;;5120999;27;20038;-49
2022/11/04 05:46:51;;;;;;;2.63;0.43;;;9.00;99.90;;;;;;5121154;27;21756;-47
2022/11/04 05:49:17;;;;;;;2.45;0.70;;;8.90;99.90;;;;;;5140388;27;20625;-50
2022/11/04 05:51:43;;;;;;;1.65;0.68;;;8.80;99.90;;;;;;5141363;27;20039;-49
2022/11/04 05:54:09;;;;;;;1.63;0.60;;;9.30;99.90;;;;;;5139505;27;20035;-50
2022/11/04 05:56:35;;;;;;;1.70;0.40;;;9.20;99.90;;;;;;5147711;27;20558;-48
2022/11/04 05:59:00;;;;;;;2.42;0.40;;;8.70;99.90;;;;;;5141052;27;20772;-50
2022/11/04 06:01:38;;;;;;;1.35;0.43;;;9.00;99.90;;;;;;5124143;27;20055;-48
2022/11/04 06:04:05;;;;;;;3.25;0.40;;;8.90;99.90;;;;;;5140049;27;20038;-48
2022/11/04 06:06:35;;;;;;;1.50;0.47;;;8.60;99.90;;;;;;5142583;27;20034;-49
2022/11/04 06:09:01;;;;;;;3.13;0.35;;;8.60;99.90;;;;;;5146948;27;20026;-47
2022/11/04 06:11:29;;;;;;;0.90;0.45;;;8.80;99.90;;;;;;5135744;27;20046;-49
2022/11/04 06:13:56;;;;;;;1.52;0.47;;;8.50;99.90;;;;;;5100943;27;20058;-48
2022/11/04 06:16:22;;;;;;;2.70;0.60;;;8.50;99.90;;;;;;5142040;27;20031;-51
2022/11/04 06:18:48;;;;;;;1.83;0.68;;;8.70;99.90;;;;;;5142167;27;20043;-48
2022/11/04 06:21:14;;;;;;;3.38;0.85;;;8.60;99.90;;;;;;5137038;27;20058;-48
2022/11/04 06:23:40;;;;;;;2.08;0.70;;;8.70;99.90;;;;;;5148901;27;20084;-51
2022/11/04 06:26:06;;;;;;;3.80;1.00;;;8.70;99.90;;;;;;5144677;27;20030;-47
2022/11/04 06:28:32;;;;;;;4.40;1.00;;;8.70;99.90;;;;;;5115653;27;20042;-51
2022/11/04 06:31:00;;;;;;;3.15;0.95;;;8.70;99.90;;;;;;5138890;27;20047;-48
2022/11/04 06:33:27;;;;;;;4.28;1.00;;;8.40;99.90;;;;;;5139071;27;20038;-49
2022/11/04 06:35:56;;;;;;;2.33;1.00;;;8.60;99.90;;;;;;5141055;27;20055;-49
2022/11/04 06:38:22;;;;;;;2.78;1.10;;;8.80;99.90;;;;;;5140274;27;20070;-50
2022/11/04 06:40:48;;;;;;;5.65;1.40;;;8.70;99.90;;;;;;5144818;27;20031;-51
2022/11/04 06:43:13;;;;;;;5.85;1.85;;;8.60;99.90;;;;;;5142191;27;20031;-50
2022/11/04 06:45:39;;;;;;;6.13;1.67;;;8.70;99.90;;;;;;5145561;27;20520;-51
2022/11/04 06:48:05;;;;;;;4.85;2.00;;;8.80;99.90;;;;;;5119609;27;20039;-50
2022/11/04 06:50:31;;;;;;;6.13;2.15;;;8.40;99.90;;;;;;5134567;27;20035;-48
2022/11/04 06:52:56;;;;;;;5.68;2.42;;;8.70;99.90;;;;;;5147642;27;20046;-49
2022/11/04 06:55:22;;;;;;;9.70;3.28;;;8.50;99.90;;;;;;5138574;27;20041;-48
2022/11/04 06:57:48;;;;;;;7.47;3.08;;;8.60;99.90;;;;;;5135355;27;20038;-50
2022/11/04 07:00:14;;;;;;;7.82;3.53;;;8.30;99.90;;;;;;5144185;27;20046;-51
2022/11/04 07:02:39;;;;;;;7.78;3.78;;;8.50;99.90;;;;;;5131961;27;20046;-49
2022/11/04 07:05:06;;;;;;;10.27;4.30;;;8.30;99.90;;;;;;5140299;27;20046;-48
2022/11/04 07:07:31;;;;;;;8.80;4.72;;;8.70;99.90;;;;;;5139666;27;20036;-47
2022/11/04 07:09:57;;;;;;;10.88;5.78;;;8.70;99.90;;;;;;5138804;27;20038;-48
2022/11/04 07:12:23;;;;;;;14.48;6.40;;;8.60;99.90;;;;;;5115979;27;20078;-48
2022/11/04 07:14:54;;;;;;;17.40;7.00;;;8.40;99.90;;;;;;5142763;27;20189;-48
2022/11/04 07:17:20;;;;;;;14.77;7.95;;;8.80;99.90;;;;;;5144944;27;20426;-49
2022/11/04 07:19:45;;;;;;;16.13;6.88;;;8.70;99.90;;;;;;5142729;27;20114;-50
2022/11/04 07:22:11;;;;;;;17.80;8.10;;;8.90;99.90;;;;;;5142461;27;20183;-52
2022/11/04 07:24:37;;;;;;;18.30;8.68;;;8.70;99.90;;;;;;5136388;27;20368;-49
2022/11/04 07:27:03;;;;;;;17.70;8.90;;;8.90;99.90;;;;;;5135223;27;20544;-49
2022/11/04 07:29:28;;;;;;;21.73;9.25;;;8.90;99.90;;;;;;5140109;27;20187;-51
2022/11/04 07:31:54;;;;;;;16.02;7.43;;;9.10;99.90;;;;;;5126613;27;20393;-47
2022/11/04 07:34:20;;;;;;;17.85;8.13;;;9.10;99.90;;;;;;5122180;27;20538;-49
2022/11/04 07:36:46;;;;;;;15.48;8.63;;;8.80;99.90;;;;;;5129443;27;20068;-49
2022/11/04 07:39:11;;;;;;;17.10;8.75;;;9.00;99.90;;;;;;5129844;27;20088;-49
2022/11/04 07:41:37;;;;;;;20.27;10.10;;;8.90;99.90;;;;;;5123570;27;20039;-50
2022/11/04 07:44:04;;;;;;;26.10;11.20;;;9.20;99.90;;;;;;5134313;27;20540;-49
2022/11/04 07:46:31;;;;;;;26.42;11.05;;;9.30;99.90;;;;;;5127381;27;20042;-48
2022/11/04 07:48:57;;;;;;;25.67;13.02;;;9.00;99.90;;;;;;5125339;27;20047;-50
2022/11/04 07:51:24;;;;;;;20.85;11.40;;;8.90;99.90;;;;;;5101926;27;20043;-49
2022/11/04 07:53:50;;;;;;;23.73;12.95;;;8.90;99.90;;;;;;5103995;27;20034;-49
2022/11/04 07:56:17;;;;;;;28.45;13.80;;;9.00;99.90;;;;;;5101076;27;20039;-48
2022/11/04 07:58:44;;;;;;;27.27;15.82;;;8.90;99.90;;;;;;5121554;27;20031;-48
2022/11/04 08:01:16;;;;;;;26.83;14.13;;;9.00;99.90;;;;;;5123675;27;20150;-47
2022/11/04 08:03:41;;;;;;;28.83;13.88;;;9.20;99.90;;;;;;5122718;27;20087;-51
2022/11/04 08:06:10;;;;;;;29.20;14.70;;;9.00;99.90;;;;;;5121484;27;20430;-48
2022/11/04 08:08:36;;;;;;;30.75;14.20;;;8.80;99.90;;;;;;5121126;27;20051;-50
2022/11/04 08:11:08;;;;;;;28.88;15.13;;;9.20;99.90;;;;;;5123418;27;20545;-48
2022/11/04 08:13:35;;;;;;;33.17;14.57;;;8.80;99.90;;;;;;5124058;27;20043;-53
2022/11/04 08:16:03;;;;;;;33.90;15.38;;;8.70;99.90;;;;;;5123535;27;20047;-52
2022/11/04 08:18:33;;;;;;;32.17;15.43;;;8.70;99.90;;;;;;5120427;27;20035;-51
2022/11/04 08:20:59;;;;;;;34.30;14.68;;;9.20;99.90;;;;;;5120996;27;20035;-48
2022/11/04 08:23:25;;;;;;;38.67;15.88;;;8.90;99.90;;;;;;5120852;27;20481;-49
2022/11/04 08:25:51;;;;;;;32.30;15.48;;;8.80;99.90;;;;;;5122751;27;20618;-48
2022/11/04 08:28:16;;;;;;;33.22;15.30;;;9.00;99.90;;;;;;5122238;27;20038;-51
2022/11/04 08:30:57;;;;;;;32.08;15.38;;;8.90;99.90;;;;;;5103391;27;20078;-48
2022/11/04 08:33:24;;;;;;;35.83;16.27;;;9.20;99.90;;;;;;5121286;27;20086;-47
2022/11/04 08:35:50;;;;;;;44.28;18.75;;;9.10;99.90;;;;;;5126236;27;20501;-49
2022/11/04 08:38:15;;;;;;;41.42;18.10;;;8.70;99.90;;;;;;5126010;27;20123;-50
2022/11/04 08:40:41;;;;;;;40.20;18.35;;;9.30;99.90;;;;;;5117817;27;20096;-49
2022/11/04 08:43:07;;;;;;;38.55;17.67;;;8.80;99.90;;;;;;5124779;27;20043;-49
2022/11/04 08:45:37;;;;;;;43.22;18.63;;;9.30;99.90;;;;;;5128338;27;20039;-49
2022/11/04 08:48:03;;;;;;;46.92;20.02;;;9.20;99.90;;;;;;5127368;27;20121;-48
2022/11/04 08:50:29;;;;;;;43.88;20.95;;;8.80;99.90;;;;;;5124445;27;20134;-50
2022/11/04 08:52:56;;;;;;;44.90;21.98;;;9.10;99.90;;;;;;5124994;27;21260;-48
2022/11/04 08:55:22;;;;;;;47.60;21.75;;;9.00;99.90;;;;;;5125373;27;20042;-49
2022/11/04 08:57:47;;;;;;;61.92;24.52;;;9.20;99.90;;;;;;5122358;27;20039;-49
2022/11/04 09:00:15;;;;;;;55.58;25.48;;;9.70;99.90;;;;;;5123269;27;20474;-49
2022/11/04 09:02:41;;;;;;;57.55;25.85;;;9.70;99.90;;;;;;5125038;27;20440;-48
2022/11/04 09:05:07;;;;;;;52.92;25.55;;;9.80;99.90;;;;;;5124092;27;20053;-48
2022/11/04 09:07:34;;;;;;;49.95;26.48;;;9.50;99.90;;;;;;5123024;27;20043;-49
2022/11/04 09:10:01;;;;;;;52.47;26.73;;;9.70;99.90;;;;;;5123545;27;20031;-48
2022/11/04 09:12:27;;;;;;;51.00;27.70;;;10.10;99.90;;;;;;5121704;27;20060;-49
2022/11/04 09:14:53;;;;;;;52.72;27.08;;;10.10;99.90;;;;;;5123062;27;20502;-53
2022/11/04 09:17:18;;;;;;;52.72;28.00;;;10.10;99.90;;;;;;5119527;27;20023;-51
2022/11/04 09:19:44;;;;;;;66.25;29.30;;;9.80;99.90;;;;;;5123796;27;20088;-49
2022/11/04 09:22:10;;;;;;;57.70;28.00;;;10.00;99.90;;;;;;5121812;27;20566;-49
2022/11/04 09:24:35;;;;;;;51.65;28.60;;;10.10;99.90;;;;;;5122625;27;20050;-52
2022/11/04 09:27:01;;;;;;;46.63;26.88;;;10.50;99.90;;;;;;5124551;27;20035;-48
2022/11/04 09:29:26;;;;;;;42.20;25.42;;;10.40;99.90;;;;;;5122431;27;20019;-49
2022/11/04 09:31:52;;;;;;;46.53;26.38;;;9.90;99.90;;;;;;5122884;27;20035;-50
2022/11/04 09:34:19;;;;;;;44.60;25.08;;;9.80;99.90;;;;;;5121678;27;20043;-50
2022/11/04 09:36:45;;;;;;;47.95;27.02;;;9.80;99.90;;;;;;5120551;27;20047;-48
2022/11/04 09:39:11;;;;;;;48.03;27.08;;;9.80;99.90;;;;;;5122838;27;20079;-49
2022/11/04 09:42:00;;;;;;;49.72;28.52;;;9.90;99.90;;;;;;5122659;27;20070;-47
2022/11/04 09:45:14;;;;;;;52.38;29.45;;;10.00;99.90;;;;;;5122451;27;20090;-48
2022/11/04 09:47:43;;;;;;;50.45;29.17;;;10.50;99.90;;;;;;5060971;28;20040;-48
2022/11/04 09:50:17;;;;;;;54.78;29.95;;;10.20;99.90;;;;;;5060269;28;20061;-49
2022/11/04 09:52:48;;;;;;;54.20;30.15;;;10.50;99.90;;;;;;5094865;27;20067;-49
2022/11/04 09:55:16;;;;;;;52.50;29.92;;;10.70;99.90;;;;;;5105322;27;20088;-47
2022/11/04 09:57:42;;;;;;;48.03;27.38;;;10.90;99.90;;;;;;5119879;27;20027;-50
2022/11/04 10:00:15;;;;;;;52.45;28.50;;;10.80;99.90;;;;;;5123794;27;20087;-48
2022/11/04 10:03:12;;;;;;;47.88;29.13;;;10.80;99.90;;;;;;5102856;27;20478;-49
2022/11/04 10:05:59;;;;;;;65.93;31.13;;;10.80;99.90;;;;;;5121019;27;20046;-50
2022/11/04 10:08:42;;;;;;;47.35;29.80;;;11.10;99.90;;;;;;5122267;27;20074;-49
2022/11/04 10:11:23;;;;;;;41.15;26.75;;;11.30;99.90;;;;;;5100546;27;20124;-48
2022/11/04 10:13:55;;;;;;;34.15;23.05;;;11.70;99.90;;;;;;5121778;27;20464;-48
2022/11/04 10:16:30;;;;;;;35.95;24.42;;;12.20;99.90;;;;;;5123544;27;20377;-51
2022/11/04 10:19:21;;;;;;;34.92;22.88;;;12.50;99.90;;;;;;5121794;27;20177;-49
2022/11/04 10:22:12;;;;;;;32.03;21.77;;;12.60;99.90;;;;;;5123586;27;20035;-50
2022/11/04 10:25:12;;;;;;;36.40;22.10;;;12.60;99.90;;;;;;5120107;27;20105;-52
2022/11/04 10:27:42;;;;;;;30.60;20.85;;;12.50;99.90;;;;;;5123248;27;20035;-52
2022/11/04 10:30:18;;;;;;;29.23;20.73;;;12.50;99.90;;;;;;5123639;27;20053;-52
2022/11/04 10:33:05;;;;;;;25.80;17.23;;;12.50;99.90;;;;;;5121838;27;20042;-53
2022/11/04 10:35:48;;;;;;;21.75;15.23;;;12.40;99.90;;;;;;5121307;27;20071;-50
2022/11/04 10:38:56;;;;;;;33.88;20.45;;;12.50;99.90;;;;;;5103383;27;20028;-55
2022/11/04 10:41:30;;;;;;;18.05;13.07;;;12.70;99.90;;;;;;5106628;27;20039;-51
2022/11/04 10:44:07;;;;;;;17.90;13.68;;;12.70;99.90;;;;;;5124256;27;20158;-50
2022/11/04 10:46:39;;;;;;;22.75;13.90;;;12.50;99.90;;;;;;5119609;27;20103;-49
2022/11/04 10:49:19;;;;;;;21.77;15.65;;;12.50;99.90;;;;;;5122586;27;20027;-51
2022/11/04 10:51:45;;;;;;;21.70;15.25;;;12.50;99.90;;;;;;5122636;27;20054;-51
2022/11/04 10:54:11;;;;;;;19.65;13.50;;;12.50;99.90;;;;;;5135203;27;20038;-51
2022/11/04 10:56:48;;;;;;;17.90;13.02;;;12.40;99.90;;;;;;5136972;27;20474;-50
2022/11/04 10:59:35;;;;;;;20.40;13.90;;;12.10;99.90;;;;;;5140947;27;20416;-50
2022/11/04 11:02:02;;;;;;;22.33;15.93;;;11.90;99.90;;;;;;5113605;27;20035;-53
2022/11/04 11:04:32;;;;;;;29.02;15.45;;;12.10;99.90;;;;;;5142558;27;20122;-50
2022/11/04 11:07:00;;;;;;;19.15;13.57;;;12.00;99.90;;;;;;5123122;27;20039;-51
2022/11/04 11:09:32;;;;;;;20.38;14.02;;;12.30;99.90;;;;;;5140403;27;20046;-50
2022/11/04 11:12:01;;;;;;;19.05;15.00;;;12.80;99.90;;;;;;5137983;27;20042;-54
2022/11/04 11:14:27;;;;;;;17.02;14.52;;;13.20;99.90;;;;;;5142716;27;20054;-48
2022/11/04 11:17:16;;;;;;;18.35;12.80;;;13.50;99.90;;;;;;5142584;27;20035;-50
2022/11/04 11:19:49;;;;;;;17.20;11.70;;;13.80;99.90;;;;;;5136672;27;20035;-51
2022/11/04 11:22:30;;;;;;;17.25;12.50;;;14.10;99.90;;;;;;5122745;27;20040;-50
2022/11/04 11:25:12;;;;;;;17.17;13.13;;;14.40;99.90;;;;;;5116247;27;20063;-51
2022/11/04 11:27:39;;;;;;;31.38;18.52;;;14.70;99.90;;;;;;5135952;27;20047;-54
2022/11/04 11:30:05;;;;;;;14.25;8.80;;;14.80;99.90;;;;;;5132989;27;20055;-52
2022/11/04 11:32:34;;;;;;;12.35;8.77;;;14.90;99.90;;;;;;5135048;27;20163;-49
2022/11/04 11:35:02;;;;;;;14.55;8.90;;;15.20;99.90;;;;;;5136525;27;20065;-51
2022/11/04 11:37:32;;;;;;;13.57;8.45;;;15.30;99.90;;;;;;5140673;27;20138;-48
2022/11/04 11:39:57;;;;;;;13.13;8.82;;;15.40;99.90;;;;;;5138552;27;20385;-52
2022/11/04 11:42:25;;;;;;;12.80;8.18;;;15.60;99.90;;;;;;5137640;27;20041;-52
2022/11/04 11:44:55;;;;;;;12.35;8.10;;;15.90;99.90;;;;;;5139843;27;20482;-48
2022/11/04 11:47:29;;;;;;;10.95;6.45;;;15.50;99.90;;;;;;5134253;27;20696;-49
2022/11/04 11:50:12;;;;;;;;;;;15.00;99.90;;;;;;5139966;27;20043;-54
2022/11/04 11:52:39;;;;;;;9.40;6.32;;;14.50;99.90;;;;;;5138099;27;19915;-50
2022/11/04 11:55:11;;;;;;;10.07;6.28;;;14.40;99.90;;;;;;5127895;27;20067;-56
2022/11/04 11:57:55;;;;;;;11.75;8.48;;;14.20;99.90;;;;;;5134323;27;20096;-53
2022/11/04 12:00:27;;;;;;;11.48;8.15;;;14.00;99.90;;;;;;5134425;27;20048;-54
2022/11/04 12:03:10;;;;;;;12.40;8.50;;;13.90;99.90;;;;;;5141991;27;20087;-49
2022/11/04 12:05:55;;;;;;;11.88;7.75;;;13.80;99.90;;;;;;5140315;27;20039;-49
2022/11/04 12:08:30;;;;;;;10.55;6.85;;;13.60;99.90;;;;;;5127615;27;20115;-52
2022/11/04 12:11:06;;;;;;;10.32;7.18;;;13.70;99.90;;;;;;5140204;27;20088;-50
2022/11/04 12:13:41;;;;;;;11.90;7.55;;;13.60;99.90;;;;;;5133212;27;20049;-52
2022/11/04 12:16:36;;;;;;;13.73;8.02;;;13.40;99.90;;;;;;5127750;27;20057;-51
2022/11/04 12:19:25;;;;;;;13.60;8.18;;;13.20;99.90;;;;;;5131524;27;20038;-51
2022/11/04 12:22:18;;;;;;;13.85;7.88;;;13.00;99.90;;;;;;5109683;27;20469;-53
2022/11/04 12:25:18;;;;;;;11.70;7.55;;;12.90;99.90;;;;;;5125400;27;20074;-52
2022/11/04 12:28:03;;;;;;;8.40;4.30;;;13.00;99.90;;;;;;5127598;27;20050;-51
2022/11/04 12:30:33;;;;;;;8.70;4.75;;;13.20;99.90;;;;;;5122350;27;20092;-54
2022/11/04 12:33:36;;;;;;;7.47;4.75;;;13.20;99.90;;;;;;5127577;27;20031;-51
2022/11/04 12:36:34;;;;;;;9.98;6.13;;;13.10;99.90;;;;;;5127509;27;20438;-51
2022/11/04 12:40:04;;;;;;;9.38;5.80;;;12.90;99.90;;;;;;5129668;27;20035;-53
2022/11/04 12:42:45;;;;;;;12.00;5.30;;;12.80;99.90;;;;;;5027955;28;20053;-50
2022/11/04 12:45:32;;;;;;;10.85;5.13;;;12.60;99.90;;;;;;5122891;27;20104;-49
2022/11/04 12:48:08;;;;;;;9.65;4.72;;;12.50;99.90;;;;;;5122653;27;20054;-49
2022/11/04 12:50:46;;;;;;;12.57;4.40;;;12.60;99.90;;;;;;5130026;27;20417;-50
2022/11/04 12:53:20;;;;;;;9.68;3.35;;;12.60;99.90;;;;;;5109021;27;20039;-49
2022/11/04 12:55:46;;;;;;;9.32;3.03;;;12.60;99.90;;;;;;5117760;27;20085;-50
2022/11/04 12:58:27;;;;;;;6.55;2.28;;;12.60;99.90;;;;;;5134630;27;20034;-49
2022/11/04 13:01:11;;;;;;;9.10;1.67;;;12.60;99.90;;;;;;5133431;27;20050;-48
2022/11/04 13:04:08;;;;;;;7.18;1.83;;;12.60;99.90;;;;;;5133389;27;20043;-50
2022/11/04 13:06:44;;;;;;;6.40;2.30;;;12.60;99.90;;;;;;5138539;27;20039;-50
2022/11/04 13:09:15;;;;;;;7.43;1.95;;;12.60;99.90;;;;;;5137257;27;20180;-52
2022/11/04 13:11:55;;;;;;;9.48;1.63;;;12.50;99.90;;;;;;5140719;27;20039;-49
2022/11/04 13:14:37;;;;;;;8.38;1.85;;;12.50;99.90;;;;;;5131945;27;20031;-50
2022/11/04 13:17:09;;;;;;;5.70;1.30;;;12.60;99.90;;;;;;5128748;27;20089;-52
2022/11/04 13:19:53;;;;;;;6.50;1.10;;;12.60;99.90;;;;;;5132371;27;20038;-52
2022/11/04 13:22:26;;;;;;;7.47;1.20;;;12.50;99.90;;;;;;5133771;27;20063;-49
2022/11/04 13:25:02;;;;;;;4.78;1.10;;;12.50;99.90;;;;;;5143322;27;20031;-48
2022/11/04 13:27:34;;;;;;;5.35;1.10;;;12.40;99.90;;;;;;5148470;27;20041;-48
2022/11/04 13:30:07;;;;;;;5.97;1.00;;;12.30;99.90;;;;;;5142463;27;20457;-49
2022/11/04 13:32:43;;;;;;;5.18;0.88;;;12.30;99.90;;;;;;5152145;27;20439;-49
2022/11/04 13:35:17;;;;;;;6.70;0.68;;;12.30;99.90;;;;;;5138817;27;20046;-51
2022/11/04 13:37:58;;;;;;;4.72;1.35;;;12.30;99.90;;;;;;5136791;27;20051;-47
2022/11/04 13:40:28;;;;;;;5.60;1.00;;;12.30;99.90;;;;;;5146476;27;20132;-49
2022/11/04 13:46:09;;;;;;;6.00;1.10;;;12.30;99.90;;;;;;5137898;27;20044;-49
2022/11/04 13:48:47;;;;;;;6.47;1.42;;;12.30;99.90;;;;;;5141258;27;20545;-50
2022/11/04 13:51:12;;;;;;;4.93;1.20;;;12.30;99.90;;;;;;5145238;27;20043;-49